Fecha, hora, temperatura, viento dirección y velocidad, humedad y presión.

  • 19-03-2019 23:00:00 | 0.10°C | Noroeste |6.00 km/h | 96.00% | 857.20 hPa
  • 19-03-2019 22:00:00 | 0.50°C | Noroeste |9.00 km/h | 95.00% | 857.10 hPa
  • 19-03-2019 21:00:00 | 0.00°C | 0 |0.00 km/h | 0.00% | 0.00 hPa
  • 19-03-2019 20:00:00 | 1.30°C | Noroeste |9.00 km/h | 93.00% | 856.30 hPa
  • 19-03-2019 19:00:00 | 2.20°C | Noroeste |13.00 km/h | 89.00% | 856.20 hPa
  • 19-03-2019 18:00:00 | 0.00°C | 0 |0.00 km/h | 0.00% | 0.00 hPa
  • 19-03-2019 17:00:00 | 4.80°C | Noroeste |12.00 km/h | 80.00% | 855.80 hPa
  • 19-03-2019 16:00:00 | 0.00°C | 0 |0.00 km/h | 0.00% | 0.00 hPa
  • 19-03-2019 15:00:00 | 0.00°C | 0 |0.00 km/h | 0.00% | 0.00 hPa
  • 19-03-2019 14:00:00 | 4.00°C | Oeste |8.00 km/h | 82.00% | 856.10 hPa
  • 19-03-2019 13:00:00 | 3.70°C | Noroeste |14.00 km/h | 85.00% | 856.20 hPa
  • 19-03-2019 12:00:00 | 0.00°C | 0 |0.00 km/h | 0.00% | 0.00 hPa
  • 19-03-2019 11:00:00 | 2.40°C | Noroeste |11.00 km/h | 83.00% | 856.00 hPa
  • 19-03-2019 10:00:00 | 0.00°C | 0 |0.00 km/h | 0.00% | 0.00 hPa
  • 19-03-2019 09:00:00 | 0.50°C | Noroeste |7.00 km/h | 86.00% | 855.10 hPa
  • 19-03-2019 08:00:00 | 0.00°C | 0 |0.00 km/h | 0.00% | 0.00 hPa
  • 19-03-2019 07:00:00 | -0.60°C | Noroeste |14.00 km/h | 89.00% | 854.30 hPa
  • 19-03-2019 06:00:00 | -0.90°C | Noroeste |15.00 km/h | 91.00% | 854.30 hPa
  • 19-03-2019 05:00:00 | -1.60°C | Noroeste |16.00 km/h | 94.00% | 854.10 hPa
  • 19-03-2019 04:00:00 | -1.30°C | Noroeste |17.00 km/h | 91.00% | 854.20 hPa
  • 19-03-2019 03:00:00 | -1.30°C | Noroeste |12.00 km/h | 90.00% | 854.80 hPa
  • 19-03-2019 02:00:00 | 0.00°C | 0 |0.00 km/h | 0.00% | 0.00 hPa
  • 19-03-2019 01:00:00 | -1.60°C | Noroeste |12.00 km/h | 91.00% | 855.10 hPa
  • 19-03-2019 00:00:00 | 0.00°C | 0 |0.00 km/h | 0.00% | 0.00 hPa
    • diseño web asturias Información sobre el estado de las mareas, altura de la marejada, temperatura del agua y otros datos de Gijón en Asturias.

      Surf Gijón